Search for airport 
image banner adimage banner ad
image banner ad

SSCX - Fazenda Coxilha Airport

Located in Passo Fundo, Brazil

ICAO - SSCX, IATA -

Data provided by Airmate  

General information

Coordinates: S28°7'0" W52°19'0"
Elevation is 2132 feet MSL.
Magnetic variation is -17° East
View others Airports in Rio Grande do Sul

Operational data

Open for public use
Current time UTC:
Current local time:
Weather at : SBPF - Lauro Kurtz Airport ( 14 km )
METAR: SBPF 262200Z 26020G30KT 3000 -RA FEW001 BKN003 BKN030 20/19 Q1008
View NOTAMs / SUP AIP / TFR affecting this airport [VIEW]
Communications frequencies: [VIEW]

Runways:

RWY identifierQFULength (ft)Width (ft)SurfaceLDA (ft)
17328098DIRT
35328098DIRT

Airport contact information

Address: Passo Fundo Brazil

Satellite view of SSCX